createdAt,value
2022-11-13T00:00:14.686Z,669.3
2022-11-13T00:01:14.523Z,669.2
2022-11-13T00:02:14.700Z,669.1
2022-11-13T00:03:15.112Z,669
2022-11-13T00:04:14.609Z,669
2022-11-13T00:05:14.820Z,669.1
2022-11-13T00:06:14.533Z,669.1
2022-11-13T00:07:14.567Z,669.1
2022-11-13T00:08:14.506Z,669
2022-11-13T00:09:15.163Z,669
2022-11-13T00:10:15.439Z,669
2022-11-13T00:11:15.090Z,669
2022-11-13T00:12:14.498Z,668.9
2022-11-13T00:13:14.505Z,669
2022-11-13T00:14:14.502Z,669
2022-11-13T00:15:15.183Z,669
2022-11-13T00:16:14.578Z,669.1
2022-11-13T00:17:14.506Z,669
2022-11-13T00:18:14.504Z,668.9
2022-11-13T00:19:14.782Z,668.9
2022-11-13T00:20:14.693Z,668.9
2022-11-13T00:21:15.160Z,668.9
2022-11-13T00:22:14.494Z,668.8
2022-11-13T00:23:15.301Z,668.8
2022-11-13T00:24:14.491Z,668.7
2022-11-13T00:25:14.493Z,668.8
2022-11-13T00:26:14.503Z,668.8
2022-11-13T00:29:14.598Z,668.7
2022-11-13T00:30:19.025Z,668.7
2022-11-13T00:31:14.508Z,668.6
2022-11-13T00:34:41.099Z,668.6
2022-11-13T00:35:15.086Z,668.6
2022-11-13T00:36:14.966Z,668.6
2022-11-13T00:37:14.494Z,668.6
2022-11-13T00:38:14.485Z,668.6
2022-11-13T00:39:14.492Z,668.6
2022-11-13T00:40:15.152Z,668.6
2022-11-13T00:41:14.496Z,668.6
2022-11-13T00:42:15.427Z,668.7
2022-11-13T00:43:14.501Z,668.7
2022-11-13T00:44:15.160Z,668.7
2022-11-13T00:45:15.221Z,668.7
2022-11-13T00:46:14.496Z,668.7
2022-11-13T00:47:14.893Z,668.7
2022-11-13T00:48:15.016Z,668.7
2022-11-13T00:49:14.997Z,668.7
2022-11-13T00:50:15.468Z,668.8
2022-11-13T00:51:15.297Z,668.8
2022-11-13T00:52:14.495Z,668.7
2022-11-13T00:53:18.101Z,668.7
2022-11-13T00:54:15.000Z,668.8
2022-11-13T00:55:14.944Z,668.7
2022-11-13T00:56:14.508Z,668.7
2022-11-13T00:57:14.507Z,668.7
2022-11-13T00:58:14.504Z,668.7
2022-11-13T01:00:14.998Z,668.8
2022-11-13T01:01:15.067Z,668.8
2022-11-13T01:02:14.508Z,668.8
2022-11-13T01:03:15.265Z,668.7
2022-11-13T01:04:14.578Z,668.8
2022-11-13T01:05:14.872Z,668.8
2022-11-13T01:06:14.490Z,668.8
2022-11-13T01:07:14.572Z,668.7
2022-11-13T01:08:14.496Z,668.7
2022-11-13T01:09:14.495Z,668.6
2022-11-13T01:10:14.664Z,668.6
2022-11-13T01:11:14.495Z,668.6
2022-11-13T01:13:14.496Z,668.7
2022-11-13T01:14:14.486Z,668.8
2022-11-13T01:15:14.750Z,668.8
2022-11-13T01:16:14.984Z,668.8
2022-11-13T01:17:14.949Z,668.8
2022-11-13T01:18:14.493Z,668.8
2022-11-13T01:19:14.828Z,668.8
2022-11-13T01:21:14.645Z,668.9
2022-11-13T01:22:14.618Z,668.9
2022-11-13T01:23:14.493Z,668.9
2022-11-13T01:24:14.493Z,668.9
2022-11-13T01:26:14.501Z,668.9
2022-11-13T01:27:14.618Z,668.8
2022-11-13T01:28:14.490Z,668.8
2022-11-13T01:29:14.480Z,668.8
2022-11-13T01:30:14.525Z,668.8
2022-11-13T01:31:14.786Z,668.8
2022-11-13T01:32:14.496Z,668.9
2022-11-13T01:33:14.490Z,668.9
2022-11-13T01:34:14.007Z,668.9
2022-11-13T01:35:15.469Z,668.9
2022-11-13T01:36:15.279Z,668.9
2022-11-13T01:38:14.894Z,668.9
2022-11-13T01:39:14.544Z,669
2022-11-13T01:40:14.483Z,669
2022-11-13T01:41:17.858Z,669
2022-11-13T01:42:15.013Z,669
2022-11-13T01:43:15.299Z,669
2022-11-13T01:44:14.488Z,669
2022-11-13T01:45:14.811Z,668.9
2022-11-13T01:46:14.506Z,668.9
2022-11-13T01:47:15.886Z,669
2022-11-13T01:48:14.479Z,669.1
2022-11-13T01:49:15.075Z,669.1
2022-11-13T01:50:15.009Z,669.1
2022-11-13T01:51:14.491Z,669.1
2022-11-13T01:52:14.611Z,669.1
2022-11-13T01:53:14.609Z,669
2022-11-13T01:55:14.494Z,668.9
2022-11-13T01:56:14.488Z,668.9
2022-11-13T01:57:14.905Z,668.9
2022-11-13T01:58:15.179Z,668.9
2022-11-13T01:59:14.472Z,668.9
2022-11-13T02:00:15.023Z,668.8
2022-11-13T02:01:15.327Z,668.9
2022-11-13T02:02:14.490Z,668.9
2022-11-13T02:03:14.492Z,668.9
2022-11-13T02:04:14.694Z,668.9
2022-11-13T02:05:15.345Z,668.9
2022-11-13T02:06:14.681Z,668.8
2022-11-13T02:07:15.919Z,668.9
2022-11-13T02:08:15.067Z,668.8
2022-11-13T02:09:14.529Z,668.8
2022-11-13T02:11:14.525Z,668.8
2022-11-13T02:12:14.485Z,668.8
2022-11-13T02:13:14.492Z,668.9
2022-11-13T02:14:14.485Z,668.8
2022-11-13T02:15:14.799Z,668.8
2022-11-13T02:16:14.482Z,668.7
2022-11-13T02:17:15.451Z,668.7
2022-11-13T02:18:15.237Z,669
2022-11-13T02:19:15.425Z,668.9
2022-11-13T02:20:14.896Z,668.8
2022-11-13T02:21:14.488Z,668.8
2022-11-13T02:22:14.482Z,668.7
2022-11-13T02:23:14.895Z,668.7
2022-11-13T02:24:14.614Z,668.8
2022-11-13T02:25:15.584Z,668.8
2022-11-13T02:26:15.028Z,668.7
2022-11-13T02:27:14.543Z,668.7
2022-11-13T02:28:14.938Z,668.7
2022-11-13T02:29:14.529Z,668.7
2022-11-13T02:30:16.347Z,668.7
2022-11-13T02:31:14.798Z,668.7
2022-11-13T02:32:14.487Z,668.7
2022-11-13T02:34:14.507Z,668.7
2022-11-13T02:35:14.498Z,668.7
2022-11-13T02:36:14.931Z,668.8
2022-11-13T02:37:14.522Z,668.8
2022-11-13T02:38:14.780Z,668.8
2022-11-13T02:39:14.494Z,668.7
2022-11-13T02:40:14.499Z,668.6
2022-11-13T02:41:14.483Z,668.6
2022-11-13T02:42:14.507Z,668.6
2022-11-13T02:44:14.993Z,668.7
2022-11-13T02:45:15.274Z,668.7
2022-11-13T02:46:15.133Z,668.7
2022-11-13T02:47:15.272Z,668.7
2022-11-13T02:48:15.006Z,668.6
2022-11-13T02:49:14.493Z,668.6
2022-11-13T02:50:15.125Z,668.6
2022-11-13T02:51:14.481Z,668.5
2022-11-13T02:52:14.505Z,668.6
2022-11-13T02:53:14.507Z,668.8
2022-11-13T02:54:17.077Z,668.6
2022-11-13T02:55:14.708Z,668.6
2022-11-13T02:56:14.487Z,668.5
2022-11-13T02:57:14.501Z,668.6
2022-11-13T02:58:15.186Z,668.5
2022-11-13T02:59:14.491Z,668.6
2022-11-13T03:00:14.542Z,668.5
2022-11-13T03:01:14.914Z,668.6
2022-11-13T03:02:15.139Z,668.5
2022-11-13T03:03:24.744Z,668.5
2022-11-13T03:04:14.485Z,668.5
2022-11-13T03:05:14.575Z,668.5
2022-11-13T03:06:14.991Z,668.4
2022-11-13T03:08:14.545Z,668.4
2022-11-13T03:09:15.464Z,668.6
2022-11-13T03:10:14.939Z,668.6
2022-11-13T03:11:15.006Z,668.5
2022-11-13T03:12:14.519Z,668.4
2022-11-13T03:13:14.821Z,668.4
2022-11-13T03:14:14.492Z,668.4
2022-11-13T03:15:15.410Z,668.3
2022-11-13T03:16:15.352Z,668.4
2022-11-13T03:17:15.163Z,668.3
2022-11-13T03:18:14.542Z,668.3
2022-11-13T03:20:14.591Z,668.5
2022-11-13T03:21:14.480Z,668.4
2022-11-13T03:22:15.227Z,668.3
2022-11-13T03:23:15.126Z,668.3
2022-11-13T03:24:15.251Z,668.3
2022-11-13T03:25:14.569Z,668.2
2022-11-13T03:26:14.602Z,668.1
2022-11-13T03:27:14.508Z,668.1
2022-11-13T03:28:14.489Z,668
2022-11-13T03:29:14.494Z,668.1
2022-11-13T03:30:15.116Z,668.2
2022-11-13T03:31:14.680Z,668.2
2022-11-13T03:32:15.306Z,668.1
2022-11-13T03:33:14.485Z,668
2022-11-13T03:34:14.492Z,668.1
2022-11-13T03:35:15.144Z,668
2022-11-13T03:36:14.484Z,668
2022-11-13T03:37:14.497Z,667.9
2022-11-13T03:38:14.488Z,667.9
2022-11-13T03:40:14.886Z,667.9
2022-11-13T03:41:14.495Z,667.9
2022-11-13T03:42:15.017Z,667.9
2022-11-13T03:43:14.478Z,667.9
2022-11-13T03:44:15.075Z,668
2022-11-13T03:45:14.908Z,668
2022-11-13T03:46:14.943Z,668.1
2022-11-13T03:47:14.706Z,668
2022-11-13T03:48:14.506Z,668
2022-11-13T03:49:14.484Z,667.9
2022-11-13T03:50:14.548Z,667.8
2022-11-13T03:51:15.064Z,667.9
2022-11-13T03:52:15.197Z,667.9
2022-11-13T03:53:14.484Z,667.8
2022-11-13T03:54:14.494Z,667.7
2022-11-13T03:55:15.050Z,667.7
2022-11-13T03:56:17.462Z,667.6
2022-11-13T03:57:15.107Z,667.6
2022-11-13T03:58:15.014Z,667.7
2022-11-13T03:59:14.493Z,667.7
2022-11-13T04:00:14.498Z,667.6
2022-11-13T04:01:14.490Z,667.6
2022-11-13T04:02:15.210Z,667.6
2022-11-13T04:03:14.962Z,667.5
2022-11-13T04:05:17.524Z,667.6
2022-11-13T04:06:15.052Z,667.5
2022-11-13T04:07:14.992Z,667.5
2022-11-13T04:08:14.889Z,667.5
2022-11-13T04:09:14.991Z,667.6
2022-11-13T04:10:14.459Z,667.5
2022-11-13T04:11:14.488Z,667.5
2022-11-13T04:12:14.525Z,667.6
2022-11-13T04:13:14.859Z,667.5
2022-11-13T04:14:14.575Z,667.4
2022-11-13T04:15:14.493Z,667.4
2022-11-13T04:16:14.519Z,667.3
2022-11-13T04:17:14.696Z,667.3
2022-11-13T04:18:15.258Z,667.4
2022-11-13T04:19:14.947Z,667.4
2022-11-13T04:20:14.930Z,667.5
2022-11-13T04:21:14.477Z,667.5
2022-11-13T04:22:14.719Z,667.4
2022-11-13T04:24:14.602Z,667.2
2022-11-13T04:25:15.392Z,667.2
2022-11-13T04:26:15.043Z,667.2
2022-11-13T04:27:14.483Z,667.1
2022-11-13T04:28:15.159Z,667.1
2022-11-13T04:29:14.479Z,667.1
2022-11-13T04:30:14.978Z,667.2
2022-11-13T04:31:14.892Z,667.2
2022-11-13T04:32:15.199Z,667.2
2022-11-13T04:33:14.873Z,667.2
2022-11-13T04:34:14.488Z,667.3
2022-11-13T04:35:15.286Z,667.2
2022-11-13T04:37:14.488Z,667.3
2022-11-13T04:38:15.031Z,667.2
2022-11-13T04:39:14.482Z,667.2
2022-11-13T04:40:14.595Z,667.3
2022-11-13T04:42:14.483Z,667.2
2022-11-13T04:43:14.591Z,667.2
2022-11-13T04:45:14.959Z,667.1
2022-11-13T04:46:14.787Z,667.2
2022-11-13T04:47:15.019Z,667.1
2022-11-13T04:48:15.009Z,667.1
2022-11-13T04:49:14.992Z,667
2022-11-13T04:50:14.482Z,667
2022-11-13T04:51:14.828Z,667
2022-11-13T04:52:15.002Z,667.1
2022-11-13T04:53:14.500Z,667.2
2022-11-13T04:54:14.660Z,667.1
2022-11-13T04:55:14.471Z,667.1
2022-11-13T04:57:14.471Z,667.1
2022-11-13T04:58:14.476Z,667.2
2022-11-13T04:59:15.429Z,667.1
2022-11-13T05:00:14.473Z,667.2
2022-11-13T05:01:14.710Z,667.1
2022-11-13T05:02:15.332Z,667.1
2022-11-13T05:03:15.147Z,667.1
2022-11-13T05:04:14.562Z,667
2022-11-13T05:05:14.469Z,667
2022-11-13T05:06:14.482Z,667.1
2022-11-13T05:07:14.574Z,667.1
2022-11-13T05:08:15.095Z,667
2022-11-13T05:09:14.462Z,667
2022-11-13T05:10:14.471Z,667
2022-11-13T05:11:14.487Z,667
2022-11-13T05:13:14.489Z,667
2022-11-13T05:14:14.500Z,666.9
2022-11-13T05:15:14.477Z,666.9
2022-11-13T05:16:15.352Z,667
2022-11-13T05:17:14.637Z,666.9
2022-11-13T05:18:14.611Z,666.9
2022-11-13T05:19:14.549Z,666.8
2022-11-13T05:20:14.902Z,666.9
2022-11-13T05:21:14.491Z,666.8
2022-11-13T05:22:14.526Z,666.8
2022-11-13T05:23:14.976Z,666.8
2022-11-13T05:24:14.483Z,666.8
2022-11-13T05:25:14.478Z,666.8
2022-11-13T05:26:14.478Z,666.8
2022-11-13T05:27:17.512Z,666.8
2022-11-13T05:28:14.496Z,666.8
2022-11-13T05:29:14.790Z,666.8
2022-11-13T05:30:15.006Z,666.7
2022-11-13T05:32:14.512Z,666.9
2022-11-13T05:33:14.594Z,666.9
2022-11-13T05:34:14.479Z,666.9
2022-11-13T05:35:14.834Z,666.8
2022-11-13T05:36:14.603Z,666.8
2022-11-13T05:37:14.475Z,666.9
2022-11-13T05:38:15.078Z,666.8
2022-11-13T05:39:15.115Z,666.7
2022-11-13T05:40:14.465Z,666.7
2022-11-13T05:41:14.800Z,666.7
2022-11-13T05:45:14.883Z,666.8
2022-11-13T05:46:14.479Z,666.7
2022-11-13T05:47:14.479Z,666.7
2022-11-13T05:48:14.528Z,666.7
2022-11-13T05:49:14.471Z,666.7
2022-11-13T05:50:14.468Z,666.7
2022-11-13T05:51:15.263Z,666.6
2022-11-13T05:52:14.475Z,666.7
2022-11-13T05:53:14.470Z,666.7
2022-11-13T05:54:14.494Z,666.8
2022-11-13T05:55:15.003Z,666.9
2022-11-13T05:56:14.492Z,666.8
2022-11-13T05:57:14.470Z,666.7
2022-11-13T05:58:14.470Z,666.6
2022-11-13T05:59:14.495Z,666.6
2022-11-13T06:00:15.078Z,666.5
2022-11-13T06:01:14.893Z,666.5
2022-11-13T06:02:14.606Z,666.5
2022-11-13T06:03:14.956Z,666.5
2022-11-13T06:04:14.475Z,666.5
2022-11-13T06:05:14.527Z,666.5
2022-11-13T06:06:14.470Z,666.5
2022-11-13T06:07:15.466Z,666.5
2022-11-13T06:08:15.341Z,666.4
2022-11-13T06:09:14.699Z,666.4
2022-11-13T06:10:14.579Z,666.5
2022-11-13T06:11:14.949Z,666.5
2022-11-13T06:12:15.071Z,666.6
2022-11-13T06:13:14.918Z,666.5
2022-11-13T06:14:14.472Z,666.4
2022-11-13T06:15:15.006Z,666.4
2022-11-13T06:16:14.597Z,666.4
2022-11-13T06:17:14.685Z,666.4
2022-11-13T06:18:14.482Z,666.4
2022-11-13T06:19:14.494Z,666.3
2022-11-13T06:20:14.746Z,666.4
2022-11-13T06:21:15.052Z,666.3
2022-11-13T06:22:14.980Z,666.3
2022-11-13T06:23:14.481Z,666.3
2022-11-13T06:24:14.474Z,666.3
2022-11-13T06:25:14.451Z,666.3
2022-11-13T06:26:14.480Z,666.2
2022-11-13T06:27:15.326Z,666.2
2022-11-13T06:28:15.083Z,666.2
2022-11-13T06:29:14.918Z,666.2
2022-11-13T06:30:14.526Z,666.2
2022-11-13T06:31:14.470Z,666.2
2022-11-13T06:32:15.426Z,666.2
2022-11-13T06:33:14.466Z,666.2
2022-11-13T06:34:14.115Z,666.2
2022-11-13T06:35:14.561Z,666.1
2022-11-13T06:36:15.277Z,666.3
2022-11-13T06:37:15.180Z,666.2
2022-11-13T06:38:14.467Z,666.1
2022-11-13T06:39:15.234Z,666.1
2022-11-13T06:40:14.978Z,666.1
2022-11-13T06:41:14.464Z,666.1
2022-11-13T06:42:14.467Z,666.1
2022-11-13T06:43:15.044Z,666.1
2022-11-13T06:45:14.468Z,666.2
2022-11-13T06:46:15.242Z,666.1
2022-11-13T06:47:14.730Z,666.1
2022-11-13T06:48:14.706Z,666.1
2022-11-13T06:49:14.477Z,666
2022-11-13T06:50:15.066Z,666
2022-11-13T06:51:14.506Z,666
2022-11-13T06:52:14.464Z,666
2022-11-13T06:53:14.468Z,666
2022-11-13T06:54:15.065Z,666
2022-11-13T06:55:14.985Z,666
2022-11-13T06:56:14.545Z,666.1
2022-11-13T06:57:14.570Z,666.1
2022-11-13T06:58:14.461Z,666.1
2022-11-13T06:59:15.028Z,666.1
2022-11-13T07:00:15.027Z,666.1
2022-11-13T07:01:14.486Z,666.2
2022-11-13T07:02:15.069Z,666.3
2022-11-13T07:03:14.582Z,666.2
2022-11-13T07:04:14.473Z,666.1
2022-11-13T07:05:15.067Z,666.2
2022-11-13T07:06:15.160Z,666.1
2022-11-13T07:07:14.868Z,666.1
2022-11-13T07:08:15.076Z,666.1
2022-11-13T07:09:14.464Z,666.1
2022-11-13T07:10:14.975Z,666.1
2022-11-13T07:11:14.467Z,666.2
2022-11-13T07:13:14.781Z,666.2
2022-11-13T07:14:14.759Z,666.2
2022-11-13T07:15:14.465Z,666.2
2022-11-13T07:16:17.710Z,666.2
2022-11-13T07:17:14.500Z,666.2
2022-11-13T07:18:14.461Z,666.2
2022-11-13T07:19:15.232Z,666.2
2022-11-13T07:20:15.121Z,666.1
2022-11-13T07:21:15.288Z,666.2
2022-11-13T07:22:15.197Z,666.1
2022-11-13T07:23:15.089Z,666.2
2022-11-13T07:24:17.036Z,666.2
2022-11-13T07:25:14.993Z,666.2
2022-11-13T07:26:14.445Z,666.2
2022-11-13T07:27:14.832Z,666.1
2022-11-13T07:28:14.469Z,666.1
2022-11-13T07:29:14.469Z,666.1
2022-11-13T07:30:14.508Z,666.1
2022-11-13T07:31:14.464Z,666.1
2022-11-13T07:32:14.455Z,666.1
2022-11-13T07:33:14.464Z,666.1
2022-11-13T07:34:14.570Z,666.2
2022-11-13T07:35:14.468Z,666.2
2022-11-13T07:36:14.460Z,666.2
2022-11-13T07:37:14.995Z,666.3
2022-11-13T07:38:14.544Z,666.3
2022-11-13T07:39:14.457Z,666.3
2022-11-13T07:40:15.020Z,666.3
2022-11-13T07:41:15.272Z,666.4
2022-11-13T07:43:14.927Z,666.5
2022-11-13T07:44:27.216Z,666.5
2022-11-13T07:45:15.112Z,666.4
2022-11-13T07:46:14.672Z,666.4
2022-11-13T07:47:15.257Z,666.4
2022-11-13T07:48:14.461Z,666.4
2022-11-13T07:49:15.158Z,666.4
2022-11-13T07:50:14.567Z,666.4
2022-11-13T07:51:14.685Z,666.5
2022-11-13T07:52:14.488Z,666.5
2022-11-13T07:53:14.463Z,666.5
2022-11-13T07:54:14.446Z,666.6
2022-11-13T07:55:14.465Z,666.5
2022-11-13T07:56:18.845Z,666.6
2022-11-13T07:57:14.912Z,666.5
2022-11-13T07:58:14.443Z,666.5
2022-11-13T07:59:14.456Z,666.5
2022-11-13T08:00:14.475Z,666.6
2022-11-13T08:01:14.582Z,666.6
2022-11-13T08:02:15.105Z,666.6
2022-11-13T08:03:14.468Z,666.7
2022-11-13T08:04:14.514Z,666.7
2022-11-13T08:05:14.945Z,666.7
2022-11-13T08:06:14.449Z,666.7
2022-11-13T08:07:14.826Z,666.7
2022-11-13T08:08:14.502Z,666.7
2022-11-13T08:09:14.731Z,666.7
2022-11-13T08:10:14.489Z,666.7
2022-11-13T08:11:15.123Z,666.8
2022-11-13T08:12:14.456Z,666.8
2022-11-13T08:13:14.704Z,666.9
2022-11-13T08:14:14.469Z,666.9
2022-11-13T08:15:14.465Z,667
2022-11-13T08:16:14.497Z,667
2022-11-13T08:17:14.707Z,667
2022-11-13T08:18:14.775Z,667.1
2022-11-13T08:19:14.769Z,667.1
2022-11-13T08:20:14.465Z,667.2
2022-11-13T08:21:15.371Z,667.3
2022-11-13T08:22:14.459Z,667.3
2022-11-13T08:23:14.467Z,667.3
2022-11-13T08:24:14.480Z,667.4
2022-11-13T08:25:14.463Z,667.4
2022-11-13T08:26:14.980Z,667.4
2022-11-13T08:27:15.255Z,667.5
2022-11-13T08:29:14.521Z,667.6
2022-11-13T08:30:14.461Z,667.7
2022-11-13T08:31:14.852Z,667.7
2022-11-13T08:32:14.453Z,667.8
2022-11-13T08:33:14.459Z,667.8
2022-11-13T08:34:15.334Z,668
2022-11-13T08:35:19.004Z,668.1
2022-11-13T08:36:14.464Z,668.2
2022-11-13T08:37:14.454Z,668.3
2022-11-13T08:38:14.464Z,668.4
2022-11-13T08:39:14.464Z,668.5
2022-11-13T08:40:14.757Z,668.6
2022-11-13T08:41:14.457Z,668.6
2022-11-13T08:42:14.962Z,668.6
2022-11-13T08:43:14.454Z,668.7
2022-11-13T08:44:15.001Z,668.7
2022-11-13T08:46:15.264Z,668.8
2022-11-13T08:47:14.932Z,668.9
2022-11-13T08:48:14.748Z,668.8
2022-11-13T08:49:14.721Z,668.8
2022-11-13T08:50:14.450Z,669
2022-11-13T08:51:14.478Z,669
2022-11-13T08:52:14.574Z,669
2022-11-13T08:53:14.456Z,669.1
2022-11-13T08:54:15.274Z,669.1
2022-11-13T08:55:14.456Z,669.1
2022-11-13T08:56:14.446Z,669.2
2022-11-13T08:57:14.967Z,669.2
2022-11-13T08:58:14.461Z,669.3
2022-11-13T08:59:14.460Z,669.3
2022-11-13T09:00:14.890Z,669.3
2022-11-13T09:01:14.858Z,669.4
2022-11-13T09:02:14.979Z,669.5
2022-11-13T09:03:14.495Z,669.6
2022-11-13T09:05:14.450Z,669.7
2022-11-13T09:06:15.747Z,669.7
2022-11-13T09:07:15.028Z,670
2022-11-13T09:08:15.295Z,669.9
2022-11-13T09:09:14.459Z,670
2022-11-13T09:10:15.059Z,670.1
2022-11-13T09:11:14.454Z,670.1
2022-11-13T09:13:14.509Z,670.2
2022-11-13T09:14:14.449Z,670.3
2022-11-13T09:15:15.851Z,670.3
2022-11-13T09:16:14.821Z,670.4
2022-11-13T09:17:14.812Z,670.5
2022-11-13T09:18:14.453Z,670.7
2022-11-13T09:19:14.461Z,670.8
2022-11-13T09:20:17.123Z,670.9
2022-11-13T09:21:15.378Z,670.9
2022-11-13T09:22:14.461Z,671.1
2022-11-13T09:23:14.591Z,671.1
2022-11-13T09:24:14.649Z,671.2
2022-11-13T09:25:14.679Z,671.3
2022-11-13T09:26:14.725Z,671.3
2022-11-13T09:27:15.100Z,671.3
2022-11-13T09:28:14.889Z,671.6
2022-11-13T09:29:14.454Z,671.8
2022-11-13T09:30:14.452Z,671.9
2022-11-13T09:31:14.714Z,671.8
2022-11-13T09:32:14.981Z,671.8
2022-11-13T09:33:15.125Z,671.7
2022-11-13T09:34:14.468Z,671.7
2022-11-13T09:35:14.465Z,671.7
2022-11-13T09:36:14.486Z,671.8
2022-11-13T09:37:14.461Z,671.8
2022-11-13T09:38:15.235Z,672
2022-11-13T09:39:15.306Z,672.4
2022-11-13T09:41:14.521Z,673.1
2022-11-13T09:42:15.243Z,673.1
2022-11-13T09:43:14.466Z,673.2
2022-11-13T09:44:15.076Z,673.3
2022-11-13T09:45:15.001Z,673.3
2022-11-13T09:46:14.675Z,673.3
2022-11-13T09:47:15.050Z,673.2
2022-11-13T09:48:14.719Z,673.2
2022-11-13T09:49:14.769Z,673.2
2022-11-13T09:50:14.871Z,673.1
2022-11-13T09:52:14.734Z,673.1
2022-11-13T09:53:14.839Z,673.1
2022-11-13T09:54:14.582Z,673.1
2022-11-13T09:55:14.968Z,673.1
2022-11-13T09:56:14.462Z,673.2
2022-11-13T09:57:14.462Z,673
2022-11-13T09:58:14.457Z,673
2022-11-13T09:59:15.251Z,673
2022-11-13T10:00:14.459Z,673.1
2022-11-13T10:01:14.524Z,673.3
2022-11-13T10:02:14.868Z,673.4
2022-11-13T10:03:17.634Z,673.5
2022-11-13T10:06:14.468Z,673.5
2022-11-13T10:08:15.156Z,673.5
2022-11-13T10:09:14.862Z,673.6
2022-11-13T10:13:14.459Z,673.6
2022-11-13T10:14:14.449Z,673.7
2022-11-13T10:15:15.300Z,673.8
2022-11-13T10:16:14.628Z,674
2022-11-13T10:17:14.455Z,673.9
2022-11-13T10:18:14.460Z,674
2022-11-13T10:19:15.243Z,674
2022-11-13T10:20:14.466Z,674
2022-11-13T10:21:14.462Z,674.1
2022-11-13T10:22:32.070Z,674.3
2022-11-13T10:23:14.448Z,674.3
2022-11-13T10:25:14.573Z,674.4
2022-11-13T10:26:14.955Z,674.5
2022-11-13T10:28:35.356Z,674.6
2022-11-13T10:29:14.571Z,674.7
2022-11-13T10:30:14.455Z,674.6
2022-11-13T10:31:14.455Z,674.6
2022-11-13T10:33:14.503Z,674.6
2022-11-13T10:37:14.462Z,674.6
2022-11-13T10:38:15.228Z,674.7
2022-11-13T10:39:14.543Z,674.8
2022-11-13T10:40:14.448Z,674.8
2022-11-13T10:42:15.141Z,675.1
2022-11-13T10:43:14.514Z,675.2
2022-11-13T10:44:14.462Z,675.3
2022-11-13T10:45:14.459Z,675.3
2022-11-13T10:46:15.239Z,675.5
2022-11-13T10:47:14.456Z,675.7
2022-11-13T10:48:14.443Z,675.7
2022-11-13T10:49:15.276Z,675.7
2022-11-13T10:51:14.717Z,675.9
2022-11-13T10:52:14.748Z,676
2022-11-13T10:53:14.457Z,676
2022-11-13T10:54:14.467Z,676.1
2022-11-13T10:55:14.666Z,676.2
2022-11-13T10:56:15.057Z,676.2
2022-11-13T10:58:14.940Z,676.3
2022-11-13T10:59:15.294Z,676.4
2022-11-13T11:00:14.891Z,676.4
2022-11-13T11:01:15.130Z,676.5
2022-11-13T11:02:14.457Z,676.5
2022-11-13T11:03:14.831Z,676.5
2022-11-13T11:04:14.452Z,676.5
2022-11-13T11:05:14.460Z,676.6
2022-11-13T11:06:14.835Z,676.5
2022-11-13T11:07:21.614Z,676.6
2022-11-13T11:08:15.288Z,676.8
2022-11-13T11:09:14.955Z,676.9
2022-11-13T11:10:14.466Z,676.8
2022-11-13T11:11:15.072Z,676.8
2022-11-13T11:13:14.468Z,676.9
2022-11-13T11:14:15.165Z,677
2022-11-13T11:15:14.465Z,677
2022-11-13T11:16:15.169Z,677
2022-11-13T11:17:14.464Z,677
2022-11-13T11:19:15.141Z,677.1
2022-11-13T11:20:15.307Z,677.1
2022-11-13T11:21:14.793Z,677.1
2022-11-13T11:22:14.468Z,677.1
2022-11-13T11:23:14.455Z,677.2
2022-11-13T11:24:15.046Z,677.2
2022-11-13T11:25:15.225Z,677.3
2022-11-13T11:27:14.571Z,677.4
2022-11-13T11:28:14.631Z,677.6
2022-11-13T11:29:15.450Z,677.6
2022-11-13T11:30:15.081Z,677.7
2022-11-13T11:31:15.074Z,677.8
2022-11-13T11:33:15.045Z,677.8
2022-11-13T11:35:14.461Z,677.7
2022-11-13T11:36:14.537Z,677.6
2022-11-13T11:37:14.461Z,677.7
2022-11-13T11:38:14.446Z,677.7
2022-11-13T11:39:14.634Z,677.9
2022-11-13T11:40:14.468Z,678.1
2022-11-13T11:41:16.870Z,678
2022-11-13T11:42:14.778Z,677.9
2022-11-13T11:43:14.907Z,677.9
2022-11-13T11:44:14.469Z,677.8
2022-11-13T11:45:14.946Z,677.8
2022-11-13T11:46:14.857Z,677.8
2022-11-13T11:47:15.231Z,677.8
2022-11-13T11:48:14.464Z,677.8
2022-11-13T11:49:14.469Z,678
2022-11-13T11:50:15.112Z,677.9
2022-11-13T11:52:15.470Z,677.9
2022-11-13T11:53:14.468Z,678
2022-11-13T11:54:14.457Z,677.9
2022-11-13T11:55:15.012Z,677.9
2022-11-13T11:56:14.483Z,677.9
2022-11-13T11:57:14.958Z,678
2022-11-13T11:58:15.245Z,678.1
2022-11-13T11:59:14.899Z,678.1
2022-11-13T12:01:14.469Z,678.2
2022-11-13T12:02:14.458Z,678.3
2022-11-13T12:03:14.720Z,678.5
2022-11-13T12:04:14.469Z,678.7
2022-11-13T12:05:19.766Z,678.7
2022-11-13T12:06:15.308Z,678.7
2022-11-13T12:07:14.556Z,678.6
2022-11-13T12:08:15.129Z,678.6
2022-11-13T12:09:14.453Z,678.6
2022-11-13T12:10:14.555Z,678.7
2022-11-13T12:11:15.159Z,678.7
2022-11-13T12:12:14.975Z,678.7
2022-11-13T12:13:14.464Z,678.8
2022-11-13T12:14:14.470Z,678.8
2022-11-13T12:15:14.469Z,678.9
2022-11-13T12:16:14.466Z,678.8
2022-11-13T12:17:17.068Z,678.8
2022-11-13T12:18:14.499Z,679
2022-11-13T12:19:14.897Z,679
2022-11-13T12:20:14.905Z,678.9
2022-11-13T12:21:14.473Z,678.9
2022-11-13T12:22:15.130Z,679
2022-11-13T12:23:15.045Z,679
2022-11-13T12:24:15.151Z,679.3
2022-11-13T12:25:14.465Z,679.4
2022-11-13T12:26:14.771Z,679.5
2022-11-13T12:27:14.777Z,679.4
2022-11-13T12:29:15.086Z,679.4
2022-11-13T12:31:14.479Z,679.6
2022-11-13T12:32:15.011Z,679.5
2022-11-13T12:35:15.564Z,679.6
2022-11-13T12:39:14.886Z,679.8
2022-11-13T12:40:14.698Z,679.8
2022-11-13T12:41:14.479Z,680
2022-11-13T12:42:14.459Z,680.1
2022-11-13T12:43:14.452Z,680
2022-11-13T12:44:14.478Z,680.2
2022-11-13T12:45:14.455Z,680.1
2022-11-13T12:46:15.261Z,680
2022-11-13T12:48:14.928Z,680.4
2022-11-13T12:49:14.535Z,680.5
2022-11-13T12:50:14.993Z,680.7
2022-11-13T12:51:14.460Z,680.8
2022-11-13T12:52:14.956Z,681.1
2022-11-13T12:53:14.772Z,681.1
2022-11-13T12:54:14.658Z,681
2022-11-13T12:55:14.451Z,681
2022-11-13T12:56:14.767Z,681.2
2022-11-13T12:57:14.461Z,681.5
2022-11-13T12:58:14.920Z,681.8
2022-11-13T12:59:31.569Z,681.8
2022-11-13T13:00:14.574Z,682.1
2022-11-13T13:01:14.716Z,682.3
2022-11-13T13:02:14.465Z,682.2
2022-11-13T13:03:14.590Z,682.2
2022-11-13T13:04:14.873Z,682.2
2022-11-13T13:05:14.458Z,682.1
2022-11-13T13:06:14.472Z,682.1
2022-11-13T13:07:16.239Z,682
2022-11-13T13:08:15.025Z,682
2022-11-13T13:09:15.072Z,681.6
2022-11-13T13:11:15.414Z,681.3
2022-11-13T13:13:19.514Z,681.4
2022-11-13T13:14:14.462Z,681.2
2022-11-13T13:15:14.999Z,681.1
2022-11-13T13:16:14.461Z,681
2022-11-13T13:17:14.477Z,681.1
2022-11-13T13:19:14.656Z,680.9
2022-11-13T13:20:14.471Z,680.8
2022-11-13T13:21:14.515Z,680.8
2022-11-13T13:22:15.124Z,680.7
2022-11-13T13:23:14.483Z,680.8
2022-11-13T13:24:14.948Z,680.9
2022-11-13T13:25:14.660Z,681
2022-11-13T13:26:14.544Z,681
2022-11-13T13:27:14.485Z,681
2022-11-13T13:28:14.945Z,681.1
2022-11-13T13:29:14.491Z,680.9
2022-11-13T13:30:15.050Z,681
2022-11-13T13:31:14.865Z,680.9
2022-11-13T13:32:20.189Z,681
2022-11-13T13:33:14.485Z,681
2022-11-13T13:34:14.487Z,681.1
2022-11-13T13:35:15.225Z,681.1
2022-11-13T13:36:14.995Z,681
2022-11-13T13:37:15.286Z,680.9
2022-11-13T13:38:14.937Z,681
2022-11-13T13:39:14.826Z,681.1
2022-11-13T13:40:14.754Z,680.9
2022-11-13T13:41:15.206Z,680.8
2022-11-13T13:42:14.479Z,680.8
2022-11-13T13:43:14.715Z,680.8
2022-11-13T13:44:15.072Z,680.8
2022-11-13T13:45:14.485Z,680.9
2022-11-13T13:46:15.240Z,680.9
2022-11-13T13:47:14.560Z,680.9
2022-11-13T13:48:14.513Z,680.9
2022-11-13T13:49:14.485Z,680.8
2022-11-13T13:50:15.065Z,680.9
2022-11-13T13:51:15.104Z,680.8
2022-11-13T13:52:14.484Z,680.8
2022-11-13T13:53:15.165Z,680.7
2022-11-13T13:55:14.737Z,680.6
2022-11-13T13:56:14.487Z,680.6
2022-11-13T13:57:14.692Z,680.6
2022-11-13T13:58:15.053Z,680.5
2022-11-13T13:59:15.070Z,680.4
2022-11-13T14:00:14.473Z,680.5
2022-11-13T14:01:19.689Z,680.4
2022-11-13T14:02:15.266Z,680.4
2022-11-13T14:03:15.055Z,680.4
2022-11-13T14:05:14.493Z,680.4
2022-11-13T14:06:14.487Z,680.4
2022-11-13T14:07:14.825Z,680.3
2022-11-13T14:08:15.158Z,680.2
2022-11-13T14:09:14.706Z,680.1